createdAt,value
2019-04-01T00:00:18.068Z,8.67
2019-04-01T00:02:46.447Z,8.07
2019-04-01T00:05:14.859Z,8.87
2019-04-01T00:07:43.233Z,8.57
2019-04-01T00:10:11.633Z,5.53
2019-04-01T00:12:40.039Z,10.07
2019-04-01T00:15:08.407Z,6.27
2019-04-01T00:17:36.781Z,6.97
2019-04-01T00:20:06.211Z,11.10
2019-04-01T00:22:34.625Z,8.83
2019-04-01T00:25:03.070Z,5.23
2019-04-01T00:27:31.470Z,10.37
2019-04-01T00:29:59.853Z,6.17
2019-04-01T00:32:28.267Z,7.00
2019-04-01T00:34:56.647Z,8.53
2019-04-01T00:37:25.048Z,7.40
2019-04-01T00:39:53.614Z,6.83
2019-04-01T00:42:26.402Z,4.53
2019-04-01T00:44:54.778Z,10.63
2019-04-01T00:47:23.155Z,7.20
2019-04-01T00:49:51.560Z,7.83
2019-04-01T00:52:19.938Z,10.77
2019-04-01T00:54:48.310Z,8.00
2019-04-01T00:57:16.700Z,10.67
2019-04-01T00:59:45.106Z,7.30
2019-04-01T01:02:13.495Z,8.10
2019-04-01T01:04:41.894Z,5.30
2019-04-01T01:07:10.307Z,4.67
2019-04-01T01:09:38.681Z,14.47
2019-04-01T01:12:07.085Z,9.83
2019-04-01T01:14:35.468Z,7.57
2019-04-01T01:17:03.869Z,9.27
2019-04-01T01:19:32.227Z,5.70
2019-04-01T01:22:00.619Z,7.77
2019-04-01T01:24:32.369Z,4.73
2019-04-01T01:26:59.056Z,4.53
2019-04-01T01:29:27.425Z,9.13
2019-04-01T01:31:55.824Z,6.73
2019-04-01T01:34:24.230Z,10.53
2019-04-01T01:36:52.621Z,6.47
2019-04-01T01:39:21.001Z,4.87
2019-04-01T01:41:49.373Z,5.17
2019-04-01T01:44:17.769Z,9.90
2019-04-01T01:46:46.138Z,9.53
2019-04-01T01:49:14.554Z,7.60
2019-04-01T01:51:42.942Z,9.50
2019-04-01T01:54:11.352Z,7.87
2019-04-01T01:56:39.750Z,5.07
2019-04-01T01:59:08.116Z,5.97
2019-04-01T02:01:36.513Z,7.50
2019-04-01T02:04:04.955Z,5.73
2019-04-01T02:06:33.259Z,7.07
2019-04-01T02:09:01.691Z,4.97
2019-04-01T02:11:30.066Z,10.37
2019-04-01T02:13:58.464Z,4.93
2019-04-01T02:16:26.847Z,9.93
2019-04-01T02:18:55.245Z,7.20
2019-04-01T02:21:23.650Z,10.47
2019-04-01T02:23:52.066Z,7.00
2019-04-01T02:26:20.454Z,8.87
2019-04-01T02:28:48.831Z,7.20
2019-04-01T02:31:17.239Z,10.30
2019-04-01T02:33:45.622Z,8.53
2019-04-01T02:36:14.048Z,9.50
2019-04-01T02:38:42.424Z,7.43
2019-04-01T02:41:10.806Z,8.80
2019-04-01T02:43:39.209Z,8.27
2019-04-01T02:46:09.578Z,11.30
2019-04-01T02:48:37.984Z,7.17
2019-04-01T02:51:06.410Z,10.57
2019-04-01T02:53:34.791Z,4.50
2019-04-01T02:56:03.188Z,4.33
2019-04-01T02:58:31.599Z,6.67
2019-04-01T03:01:00.046Z,6.93
2019-04-01T03:03:28.423Z,10.60
2019-04-01T03:05:56.876Z,8.50
2019-04-01T03:08:25.242Z,12.40
2019-04-01T03:10:53.692Z,7.03
2019-04-01T03:13:22.064Z,8.93
2019-04-01T03:15:50.508Z,10.50
2019-04-01T03:18:18.908Z,7.23
2019-04-01T03:20:47.313Z,6.20
2019-04-01T03:23:15.679Z,7.00
2019-04-01T03:25:44.066Z,7.40
2019-04-01T03:28:12.474Z,7.23
2019-04-01T03:30:40.856Z,7.00
2019-04-01T03:33:09.241Z,10.27
2019-04-01T03:35:37.645Z,4.97
2019-04-01T03:38:06.009Z,6.27
2019-04-01T03:40:34.783Z,5.90
2019-04-01T03:43:03.161Z,4.60
2019-04-01T03:45:31.568Z,7.77
2019-04-01T03:47:59.954Z,7.20
2019-04-01T03:50:28.357Z,5.17
2019-04-01T03:52:56.737Z,4.73
2019-04-01T03:55:25.116Z,5.43
2019-04-01T03:57:53.633Z,7.37
2019-04-01T04:00:22.023Z,4.90
2019-04-01T04:02:50.427Z,4.23
2019-04-01T04:05:18.766Z,4.53
2019-04-01T04:07:47.275Z,8.50
2019-04-01T04:10:15.660Z,9.07
2019-04-01T04:12:44.075Z,8.83
2019-04-01T04:15:12.478Z,6.10
2019-04-01T04:17:40.873Z,8.10
2019-04-01T04:20:09.265Z,9.20
2019-04-01T04:22:37.635Z,5.77
2019-04-01T04:25:06.785Z,6.97
2019-04-01T04:27:35.159Z,8.80
2019-04-01T04:30:05.179Z,7.17
2019-04-01T04:32:33.571Z,8.73
2019-04-01T04:35:01.960Z,8.13
2019-04-01T04:37:30.363Z,8.50
2019-04-01T04:39:58.733Z,8.13
2019-04-01T04:42:27.139Z,6.27
2019-04-01T04:44:55.572Z,8.40
2019-04-01T04:47:24.079Z,8.53
2019-04-01T04:49:52.437Z,13.07
2019-04-01T04:52:20.852Z,10.90
2019-04-01T04:54:49.211Z,7.00
2019-04-01T04:57:20.236Z,8.40
2019-04-01T04:59:47.676Z,6.67
2019-04-01T05:02:16.071Z,9.57
2019-04-01T05:04:44.479Z,8.67
2019-04-01T05:07:12.860Z,10.00
2019-04-01T05:09:41.272Z,6.30
2019-04-01T05:12:09.689Z,6.93
2019-04-01T05:14:38.232Z,5.40
2019-04-01T05:17:06.580Z,5.83
2019-04-01T05:19:35.028Z,7.43
2019-04-01T05:22:03.447Z,7.00
2019-04-01T05:24:31.850Z,13.00
2019-04-01T05:27:00.777Z,9.07
2019-04-01T05:29:30.463Z,7.70
2019-04-01T05:31:59.204Z,7.10
2019-04-01T05:34:29.092Z,10.97
2019-04-01T05:36:57.525Z,6.43
2019-04-01T05:39:25.921Z,9.00
2019-04-01T05:41:54.371Z,6.17
2019-04-01T05:44:22.806Z,10.40
2019-04-01T05:46:51.211Z,8.20
2019-04-01T05:49:19.622Z,5.60
2019-04-01T05:51:47.990Z,4.03
2019-04-01T05:54:16.390Z,11.07
2019-04-01T05:56:44.828Z,10.80
2019-04-01T05:59:13.234Z,11.40
2019-04-01T06:01:43.298Z,7.83
2019-04-01T06:04:11.700Z,6.93
2019-04-01T06:06:40.119Z,5.13
2019-04-01T06:09:08.892Z,3.67
2019-04-01T06:11:37.268Z,10.60
2019-04-01T06:14:05.735Z,4.40
2019-04-01T06:16:34.216Z,8.27
2019-04-01T06:19:05.857Z,5.70
2019-04-01T06:21:32.660Z,9.30
2019-04-01T06:24:01.067Z,7.30
2019-04-01T06:26:29.446Z,6.90
2019-04-01T06:28:57.855Z,8.70
2019-04-01T06:31:26.268Z,7.37
2019-04-01T06:33:57.622Z,7.20
2019-04-01T06:36:26.005Z,9.10
2019-04-01T06:38:54.407Z,5.97
2019-04-01T06:41:22.784Z,11.50
2019-04-01T06:43:51.200Z,6.80
2019-04-01T06:46:19.616Z,7.30
2019-04-01T06:48:48.018Z,6.67
2019-04-01T06:51:16.436Z,6.57
2019-04-01T06:53:44.825Z,6.43
2019-04-01T06:56:13.227Z,9.40
2019-04-01T06:58:41.607Z,7.00
2019-04-01T07:01:10.012Z,6.40
2019-04-01T07:03:38.427Z,8.13
2019-04-01T07:06:06.807Z,11.63
2019-04-01T07:08:35.211Z,9.20
2019-04-01T07:11:03.595Z,6.77
2019-04-01T07:13:32.000Z,8.00
2019-04-01T07:16:14.349Z,7.47
2019-04-01T07:18:30.446Z,6.33
2019-04-01T07:20:58.916Z,7.13
2019-04-01T07:23:27.315Z,8.07
2019-04-01T07:25:55.760Z,7.70
2019-04-01T07:28:24.151Z,9.67
2019-04-01T07:30:52.555Z,8.70
2019-04-01T07:33:20.941Z,8.53
2019-04-01T07:35:49.354Z,9.83
2019-04-01T07:38:17.740Z,13.83
2019-04-01T07:40:46.185Z,9.70
2019-04-01T07:43:15.235Z,8.03
2019-04-01T07:45:43.715Z,4.77
2019-04-01T07:48:12.756Z,10.13
2019-04-01T07:50:41.433Z,11.43
2019-04-01T07:53:10.093Z,7.30
2019-04-01T07:55:38.489Z,11.40
2019-04-01T07:58:06.880Z,6.53
2019-04-01T08:00:35.342Z,7.70
2019-04-01T08:03:03.731Z,6.37
2019-04-01T08:05:32.147Z,7.10
2019-04-01T08:08:00.558Z,9.20
2019-04-01T08:10:28.933Z,7.93
2019-04-01T08:12:57.312Z,9.90
2019-04-01T08:15:25.716Z,10.63
2019-04-01T08:17:54.207Z,8.03
2019-04-01T08:20:22.595Z,8.33
2019-04-01T08:22:50.984Z,8.47
2019-04-01T08:25:19.379Z,9.03
2019-04-01T08:27:47.808Z,12.10
2019-04-01T08:30:16.204Z,9.53
2019-04-01T08:32:44.611Z,13.60
2019-04-01T08:35:12.992Z,7.80
2019-04-01T08:37:41.405Z,7.43
2019-04-01T08:40:09.805Z,7.47
2019-04-01T08:42:38.219Z,7.27
2019-04-01T08:45:07.742Z,9.67
2019-04-01T08:47:36.151Z,8.57
2019-04-01T08:50:06.397Z,17.00
2019-04-01T08:52:34.882Z,6.20
2019-04-01T08:55:04.841Z,9.93
2019-04-01T08:57:33.308Z,6.73
2019-04-01T09:00:01.709Z,9.57
2019-04-01T09:02:30.093Z,7.80
2019-04-01T09:04:58.500Z,9.13
2019-04-01T09:07:26.887Z,10.60
2019-04-01T09:09:55.293Z,5.23
2019-04-01T09:12:23.836Z,10.57
2019-04-01T09:14:52.836Z,5.30
2019-04-01T09:17:21.231Z,8.63
2019-04-01T09:19:49.629Z,9.63
2019-04-01T09:22:18.012Z,9.20
2019-04-01T09:24:46.427Z,5.43
2019-04-01T09:27:14.832Z,8.73
2019-04-01T09:29:43.248Z,8.40
2019-04-01T09:32:11.656Z,8.47
2019-04-01T09:34:40.065Z,9.17
2019-04-01T09:37:08.470Z,8.87
2019-04-01T09:39:36.844Z,7.07
2019-04-01T09:42:05.260Z,7.73
2019-04-01T09:44:36.976Z,7.00
2019-04-01T09:47:03.762Z,12.80
2019-04-01T09:49:32.151Z,8.63
2019-04-01T09:52:03.728Z,7.30
2019-04-01T09:54:30.644Z,9.53
2019-04-01T09:56:59.052Z,7.77
2019-04-01T09:59:27.459Z,9.37
2019-04-01T10:01:55.856Z,10.37
2019-04-01T10:04:24.293Z,9.27
2019-04-01T10:06:52.697Z,8.97
2019-04-01T10:09:21.104Z,9.57
2019-04-01T10:11:49.509Z,8.13
2019-04-01T10:14:17.910Z,7.37
2019-04-01T10:16:46.385Z,11.90
2019-04-01T10:19:14.774Z,9.43
2019-04-01T10:21:45.309Z,11.53
2019-04-01T10:24:13.213Z,11.57
2019-04-01T10:26:41.732Z,10.37
2019-04-01T10:29:10.135Z,11.23
2019-04-01T10:31:38.634Z,5.20
2019-04-01T10:34:07.047Z,5.00
2019-04-01T10:36:35.411Z,9.10
2019-04-01T10:39:05.939Z,8.23
2019-04-01T10:41:34.320Z,7.73
2019-04-01T10:44:04.835Z,8.20
2019-04-01T10:46:32.831Z,10.20
2019-04-01T10:49:01.315Z,9.40
2019-04-01T10:51:29.672Z,8.90
2019-04-01T10:53:58.146Z,8.80
2019-04-01T10:56:26.588Z,9.07
2019-04-01T10:58:55.034Z,11.63
2019-04-01T11:01:23.458Z,11.80
2019-04-01T11:03:51.767Z,7.20
2019-04-01T11:06:20.212Z,7.33
2019-04-01T11:08:48.614Z,7.77
2019-04-01T11:11:17.018Z,8.50
2019-04-01T11:13:45.419Z,8.23
2019-04-01T11:16:13.804Z,8.47
2019-04-01T11:18:42.207Z,6.00
2019-04-01T11:21:10.700Z,7.33
2019-04-01T11:23:39.122Z,6.70
2019-04-01T11:26:07.505Z,9.83
2019-04-01T11:28:35.915Z,10.23
2019-04-01T11:31:04.322Z,8.83
2019-04-01T11:33:32.745Z,7.50
2019-04-01T11:36:01.249Z,8.30
2019-04-01T11:38:29.633Z,9.30
2019-04-01T11:40:58.045Z,8.97
2019-04-01T11:43:26.505Z,8.07
2019-04-01T11:45:54.873Z,6.03
2019-04-01T11:48:23.242Z,7.77
2019-04-01T11:50:51.658Z,6.93
2019-04-01T11:53:20.149Z,10.60
2019-04-01T11:55:48.573Z,11.13
2019-04-01T11:58:16.992Z,7.07
2019-04-01T12:00:45.405Z,11.50
2019-04-01T12:03:13.781Z,9.97
2019-04-01T12:05:42.174Z,8.03
2019-04-01T12:08:10.594Z,10.57
2019-04-01T12:10:38.995Z,6.63
2019-04-01T12:13:07.464Z,7.93
2019-04-01T12:15:35.866Z,6.23
2019-04-01T12:18:04.337Z,6.33
2019-04-01T12:20:32.717Z,9.57
2019-04-01T12:23:01.190Z,8.83
2019-04-01T12:25:29.655Z,10.23
2019-04-01T12:27:58.157Z,5.93
2019-04-01T12:30:26.655Z,9.37
2019-04-01T12:32:55.036Z,7.20
2019-04-01T12:35:23.438Z,8.23
2019-04-01T12:37:51.846Z,8.33
2019-04-01T12:40:39.651Z,8.43
2019-04-01T12:43:08.104Z,8.03
2019-04-01T12:45:36.740Z,7.17
2019-04-01T12:48:05.236Z,9.27
2019-04-01T12:50:33.631Z,11.63
2019-04-01T12:53:02.000Z,8.47
2019-04-01T12:55:30.503Z,10.17
2019-04-01T12:57:58.886Z,7.67
2019-04-01T13:00:29.089Z,9.47
2019-04-01T13:02:57.431Z,7.17
2019-04-01T13:05:25.875Z,6.07
2019-04-01T13:07:54.441Z,8.77
2019-04-01T13:10:22.816Z,11.17
2019-04-01T13:12:53.966Z,9.23
2019-04-01T13:15:21.329Z,8.73
2019-04-01T13:17:50.076Z,7.93
2019-04-01T13:20:18.738Z,7.00
2019-04-01T13:22:47.130Z,10.87
2019-04-01T13:25:15.571Z,10.53
2019-04-01T13:27:43.989Z,8.60
2019-04-01T13:30:12.402Z,10.27
2019-04-01T13:32:40.816Z,7.97
2019-04-01T13:35:09.246Z,6.43
2019-04-01T13:37:37.611Z,9.57
2019-04-01T13:40:06.175Z,10.20
2019-04-01T13:42:34.574Z,8.23
2019-04-01T13:45:03.154Z,8.27
2019-04-01T13:47:31.598Z,9.47
2019-04-01T13:50:00.034Z,10.23
2019-04-01T13:52:28.438Z,12.80
2019-04-01T13:54:56.860Z,7.30
2019-04-01T13:57:25.416Z,6.37
2019-04-01T13:59:53.824Z,9.57
2019-04-01T14:02:22.316Z,9.43
2019-04-01T14:04:50.733Z,11.23
2019-04-01T14:07:19.195Z,8.83
2019-04-01T14:09:47.632Z,9.23
2019-04-01T14:12:16.008Z,11.77
2019-04-01T14:14:44.483Z,17.37
2019-04-01T14:17:12.901Z,11.60
2019-04-01T14:19:41.302Z,7.77
2019-04-01T14:22:09.681Z,7.57
2019-04-01T14:24:38.093Z,15.33
2019-04-01T14:27:06.474Z,12.00
2019-04-01T14:29:36.629Z,10.90
2019-04-01T14:32:04.996Z,9.17
2019-04-01T14:34:33.381Z,9.73
2019-04-01T14:37:01.797Z,9.33
2019-04-01T14:39:33.121Z,10.37
2019-04-01T14:42:00.371Z,8.00
2019-04-01T14:44:28.734Z,7.97
2019-04-01T14:46:57.157Z,10.20
2019-04-01T14:49:25.535Z,7.47
2019-04-01T14:51:54.054Z,8.50
2019-04-01T14:54:22.450Z,12.50
2019-04-01T14:56:50.864Z,10.30
2019-04-01T14:59:19.264Z,9.53
2019-04-01T15:01:47.669Z,10.17
2019-04-01T15:04:16.072Z,9.57
2019-04-01T15:06:45.273Z,10.37
2019-04-01T15:09:14.028Z,8.63
2019-04-01T15:11:42.416Z,9.87
2019-04-01T15:14:10.831Z,10.27
2019-04-01T15:16:39.273Z,10.10
2019-04-01T15:19:07.676Z,9.10
2019-04-01T15:21:36.096Z,7.20
2019-04-01T15:24:04.474Z,9.60
2019-04-01T15:26:33.867Z,9.23
2019-04-01T15:29:02.412Z,9.07
2019-04-01T15:31:30.823Z,10.87
2019-04-01T15:33:59.259Z,9.83
2019-04-01T15:36:27.758Z,13.60
2019-04-01T15:38:56.134Z,8.37
2019-04-01T15:41:26.739Z,8.97
2019-04-01T15:43:54.642Z,10.63
2019-04-01T15:46:23.023Z,11.27
2019-04-01T15:48:51.434Z,7.03
2019-04-01T15:51:19.818Z,8.07
2019-04-01T15:53:48.237Z,9.77
2019-04-01T15:56:16.657Z,8.50
2019-04-01T15:58:45.142Z,8.87
2019-04-01T16:01:13.520Z,8.83
2019-04-01T16:03:41.949Z,9.37
2019-04-01T16:06:10.371Z,6.60
2019-04-01T16:08:38.850Z,9.30
2019-04-01T16:11:07.223Z,10.83
2019-04-01T16:13:35.632Z,7.23
2019-04-01T16:16:04.010Z,9.30
2019-04-01T16:18:32.393Z,8.93
2019-04-01T16:21:00.874Z,9.87
2019-04-01T16:23:29.259Z,10.23
2019-04-01T16:25:57.703Z,9.77
2019-04-01T16:28:26.052Z,7.27
2019-04-01T16:30:54.552Z,10.87
2019-04-01T16:33:22.942Z,6.90
2019-04-01T16:35:51.449Z,8.20
2019-04-01T16:38:19.831Z,6.57
2019-04-01T16:40:48.255Z,9.63
2019-04-01T16:43:17.277Z,9.53
2019-04-01T16:45:45.966Z,8.93
2019-04-01T16:48:14.368Z,7.43
2019-04-01T16:50:42.760Z,7.53
2019-04-01T16:53:11.167Z,8.97
2019-04-01T16:55:39.544Z,6.30
2019-04-01T16:58:07.953Z,10.57
2019-04-01T17:00:36.370Z,9.77
2019-04-01T17:03:04.757Z,9.87
2019-04-01T17:05:34.794Z,11.77
2019-04-01T17:08:03.405Z,7.67
2019-04-01T17:10:33.068Z,8.80
2019-04-01T17:13:01.681Z,10.07
2019-04-01T17:15:30.118Z,11.43
2019-04-01T17:17:58.500Z,9.47
2019-04-01T17:20:28.572Z,10.97
2019-04-01T17:22:57.064Z,9.87
2019-04-01T17:25:26.273Z,10.10
2019-04-01T17:27:55.009Z,12.03
2019-04-01T17:30:23.387Z,9.00
2019-04-01T17:32:51.821Z,12.83
2019-04-01T17:35:20.336Z,9.73
2019-04-01T17:37:48.719Z,9.63
2019-04-01T17:40:17.355Z,13.97
2019-04-01T17:42:46.607Z,10.00
2019-04-01T17:45:24.453Z,10.30
2019-04-01T17:47:52.854Z,10.77
2019-04-01T17:50:21.263Z,12.47
2019-04-01T17:52:49.658Z,11.63
2019-04-01T17:55:18.060Z,11.70
2019-04-01T17:57:46.580Z,13.57
2019-04-01T18:00:17.369Z,12.37
2019-04-01T18:02:45.770Z,13.27
2019-04-01T18:05:17.154Z,19.60
2019-04-01T18:07:45.567Z,12.83
2019-04-01T18:10:13.963Z,14.37
2019-04-01T18:12:42.343Z,12.97
2019-04-01T18:15:12.134Z,10.37
2019-04-01T18:17:41.265Z,12.37
2019-04-01T18:20:10.478Z,12.87
2019-04-01T18:22:38.901Z,11.07
2019-04-01T18:25:07.285Z,16.93
2019-04-01T18:27:35.794Z,13.83
2019-04-01T18:30:06.790Z,15.23
2019-04-01T18:32:35.128Z,12.70
2019-04-01T18:35:04.771Z,14.83
2019-04-01T18:37:35.123Z,15.23
2019-04-01T18:40:04.889Z,12.10
2019-04-01T18:42:33.328Z,14.80
2019-04-01T18:45:03.489Z,12.67
2019-04-01T18:47:31.855Z,12.67
2019-04-01T18:50:00.290Z,15.13
2019-04-01T18:52:28.686Z,15.27
2019-04-01T18:54:57.088Z,14.97
2019-04-01T18:57:27.096Z,10.57
2019-04-01T18:59:55.601Z,12.83
2019-04-01T19:02:24.148Z,16.60
2019-04-01T19:04:52.533Z,15.80
2019-04-01T19:07:21.987Z,12.67
2019-04-01T19:09:50.606Z,13.37
2019-04-01T19:12:18.979Z,14.50
2019-04-01T19:14:47.410Z,16.73
2019-04-01T19:17:15.788Z,11.90
2019-04-01T19:19:44.197Z,13.23
2019-04-01T19:22:12.581Z,14.93
2019-04-01T19:24:40.991Z,13.23
2019-04-01T19:27:09.439Z,14.17
2019-04-01T19:29:42.656Z,15.63
2019-04-01T19:32:09.768Z,17.90
2019-04-01T19:34:38.195Z,15.87
2019-04-01T19:37:06.646Z,17.47
2019-04-01T19:39:35.082Z,16.80
2019-04-01T19:42:03.540Z,14.73
2019-04-01T19:44:31.955Z,16.07
2019-04-01T19:47:00.357Z,14.80
2019-04-01T19:49:28.780Z,14.93
2019-04-01T19:51:58.697Z,13.13
2019-04-01T19:54:31.560Z,13.87
2019-04-01T19:57:01.491Z,16.33
2019-04-01T19:59:29.875Z,12.70
2019-04-01T20:01:59.384Z,13.63
2019-04-01T20:04:28.444Z,16.57
2019-04-01T20:06:56.870Z,16.63
2019-04-01T20:09:25.280Z,10.80
2019-04-01T20:11:53.670Z,13.43
2019-04-01T20:14:22.097Z,15.53
2019-04-01T20:16:51.028Z,12.43
2019-04-01T20:19:19.444Z,13.60
2019-04-01T20:21:47.839Z,14.93
2019-04-01T20:24:16.219Z,14.87
2019-04-01T20:26:44.623Z,16.57
2019-04-01T20:29:17.582Z,12.10
2019-04-01T20:31:46.013Z,13.33
2019-04-01T20:34:19.932Z,11.63
2019-04-01T20:36:44.463Z,15.10
2019-04-01T20:39:12.844Z,13.37
2019-04-01T20:41:41.254Z,14.17
2019-04-01T20:44:09.638Z,13.67
2019-04-01T20:46:39.108Z,13.67
2019-04-01T20:49:07.620Z,14.27
2019-04-01T20:51:36.057Z,10.83
2019-04-01T20:54:04.483Z,15.00
2019-04-01T20:56:32.904Z,15.10
2019-04-01T20:59:01.394Z,12.10
2019-04-01T21:01:29.791Z,12.53
2019-04-01T21:03:58.952Z,12.57
2019-04-01T21:06:27.617Z,15.87
2019-04-01T21:08:56.043Z,14.80
2019-04-01T21:11:24.449Z,12.07
2019-04-01T21:13:52.839Z,14.33
2019-04-01T21:16:21.258Z,13.40
2019-04-01T21:18:50.280Z,13.37
2019-04-01T21:21:18.672Z,16.30
2019-04-01T21:23:47.178Z,15.47
2019-04-01T21:26:15.557Z,16.70
2019-04-01T21:28:43.971Z,13.20
2019-04-01T21:31:12.399Z,12.67
2019-04-01T21:33:41.148Z,13.23
2019-04-01T21:36:10.542Z,15.77
2019-04-01T21:38:38.920Z,13.60
2019-04-01T21:41:07.320Z,14.40
2019-04-01T21:43:35.734Z,14.70
2019-04-01T21:46:04.140Z,14.70
2019-04-01T21:48:32.523Z,13.73
2019-04-01T21:51:00.914Z,15.70
2019-04-01T21:53:31.043Z,15.97
2019-04-01T21:55:59.344Z,13.90
2019-04-01T21:58:27.727Z,11.47
2019-04-01T22:00:57.307Z,13.47
2019-04-01T22:03:25.710Z,15.33
2019-04-01T22:05:54.092Z,14.67
2019-04-01T22:08:22.499Z,15.53
2019-04-01T22:10:50.914Z,12.83
2019-04-01T22:13:19.322Z,14.37
2019-04-01T22:15:47.710Z,15.00
2019-04-01T22:18:16.121Z,11.13
2019-04-01T22:20:44.499Z,14.37
2019-04-01T22:23:12.916Z,13.77
2019-04-01T22:25:41.290Z,15.17
2019-04-01T22:28:09.694Z,16.50
2019-04-01T22:30:38.077Z,15.40
2019-04-01T22:33:06.478Z,15.30
2019-04-01T22:35:39.093Z,14.60
2019-04-01T22:38:06.236Z,12.77
2019-04-01T22:40:34.720Z,18.43
2019-04-01T22:43:03.096Z,17.80
2019-04-01T22:45:31.507Z,17.53
2019-04-01T22:47:59.882Z,15.37
2019-04-01T22:50:28.299Z,15.10
2019-04-01T22:52:56.680Z,18.10
2019-04-01T22:55:25.109Z,15.87
2019-04-01T22:57:53.713Z,16.70
2019-04-01T23:00:22.234Z,19.07
2019-04-01T23:02:50.641Z,10.93
2019-04-01T23:05:19.071Z,14.60
2019-04-01T23:07:47.450Z,15.23
2019-04-01T23:10:15.855Z,14.97
2019-04-01T23:12:45.219Z,12.63
2019-04-01T23:15:15.363Z,13.40
2019-04-01T23:17:44.603Z,15.13
2019-04-01T23:20:13.033Z,13.23
2019-04-01T23:22:41.381Z,14.27
2019-04-01T23:25:09.795Z,15.50
2019-04-01T23:27:38.199Z,12.37
2019-04-01T23:30:08.383Z,16.17
2019-04-01T23:32:36.773Z,13.90
2019-04-01T23:35:06.308Z,15.10
2019-04-01T23:37:34.681Z,13.57
2019-04-01T23:40:03.446Z,14.37
2019-04-01T23:42:32.177Z,15.37
2019-04-01T23:45:00.591Z,13.97
2019-04-01T23:47:30.388Z,20.77
2019-04-01T23:49:58.963Z,17.30
2019-04-01T23:52:27.363Z,14.60
2019-04-01T23:54:55.784Z,18.40
2019-04-01T23:57:24.226Z,15.10
2019-04-01T23:59:53.447Z,16.43
